sensor_id;sensor_type;location;lat;lon;timestamp;temperature;humidity
66375;DHT22;53173;52.176;5.314;2023-03-08T17:00:15;3.70;97.80
66375;DHT22;53173;52.176;5.314;2023-03-08T17:02:43;3.70;97.90
66375;DHT22;53173;52.176;5.314;2023-03-08T17:05:13;3.60;97.90
66375;DHT22;53173;52.176;5.314;2023-03-08T17:07:40;3.60;98.00
66375;DHT22;53173;52.176;5.314;2023-03-08T17:10:08;3.70;98.10
66375;DHT22;53173;52.176;5.314;2023-03-08T17:12:41;3.60;98.10
66375;DHT22;53173;52.176;5.314;2023-03-08T17:15:08;3.80;98.10
66375;DHT22;53173;52.176;5.314;2023-03-08T17:17:39;3.60;98.20
66375;DHT22;53173;52.176;5.314;2023-03-08T17:20:07;3.60;98.20
66375;DHT22;53173;52.176;5.314;2023-03-08T17:22:40;3.60;98.20
66375;DHT22;53173;52.176;5.314;2023-03-08T17:25:08;3.60;98.20
66375;DHT22;53173;52.176;5.314;2023-03-08T17:27:35;3.60;98.30
66375;DHT22;53173;52.176;5.314;2023-03-08T17:30:02;3.50;98.30
66375;DHT22;53173;52.176;5.314;2023-03-08T17:35:39;3.50;98.30
66375;DHT22;53173;52.176;5.314;2023-03-08T20:14:14;2.90;99.00
66375;DHT22;53173;52.176;5.314;2023-03-08T20:17:04;2.90;99.10
66375;DHT22;53173;52.176;5.314;2023-03-08T20:19:31;2.90;99.00
66375;DHT22;53173;52.176;5.314;2023-03-08T20:22:02;2.90;99.10
66375;DHT22;53173;52.176;5.314;2023-03-08T20:24:31;2.90;99.10
66375;DHT22;53173;52.176;5.314;2023-03-08T20:27:24;2.80;99.10
66375;DHT22;53173;52.176;5.314;2023-03-08T20:29:57;2.90;99.10
66375;DHT22;53173;52.176;5.314;2023-03-08T20:32:24;2.90;99.20
66375;DHT22;53173;52.176;5.314;2023-03-08T20:34:55;2.90;99.20
66375;DHT22;53173;52.176;5.314;2023-03-08T20:37:23;2.90;99.20
66375;DHT22;53173;52.176;5.314;2023-03-08T20:39:58;2.90;99.30
66375;DHT22;53173;52.176;5.314;2023-03-08T20:42:45;2.90;99.30
66375;DHT22;53173;52.176;5.314;2023-03-08T20:45:15;2.90;99.40
66375;DHT22;53173;52.176;5.314;2023-03-08T20:48:42;2.80;99.30
66375;DHT22;53173;52.176;5.314;2023-03-08T20:51:20;2.80;99.40
66375;DHT22;53173;52.176;5.314;2023-03-08T20:54:13;2.90;99.40
66375;DHT22;53173;52.176;5.314;2023-03-08T21:00:12;2.80;99.50
66375;DHT22;53173;52.176;5.314;2023-03-08T21:02:39;2.80;99.50
66375;DHT22;53173;52.176;5.314;2023-03-08T21:05:06;2.70;99.50
66375;DHT22;53173;52.176;5.314;2023-03-08T21:07:33;2.70;99.50
66375;DHT22;53173;52.176;5.314;2023-03-08T21:10:00;2.80;99.60
66375;DHT22;53173;52.176;5.314;2023-03-08T21:12:27;2.70;99.60
66375;DHT22;53173;52.176;5.314;2023-03-08T21:14:54;2.70;99.60
66375;DHT22;53173;52.176;5.314;2023-03-08T21:17:21;2.80;99.70
66375;DHT22;53173;52.176;5.314;2023-03-08T21:19:54;2.70;99.70
66375;DHT22;53173;52.176;5.314;2023-03-08T21:22:22;2.70;99.80
66375;DHT22;53173;52.176;5.314;2023-03-08T21:24:49;2.80;99.80
66375;DHT22;53173;52.176;5.314;2023-03-08T21:27:21;2.90;99.90
66375;DHT22;53173;52.176;5.314;2023-03-08T21:29:48;2.80;99.90
66375;DHT22;53173;52.176;5.314;2023-03-08T21:32:15;2.70;99.90
66375;DHT22;53173;52.176;5.314;2023-03-08T21:34:44;2.70;99.90
66375;DHT22;53173;52.176;5.314;2023-03-08T21:37:32;2.80;99.90
66375;DHT22;53173;52.176;5.314;2023-03-08T21:40:18;2.70;99.90
66375;DHT22;53173;52.176;5.314;2023-03-08T21:43:13;2.70;99.90
66375;DHT22;53173;52.176;5.314;2023-03-08T21:45:48;2.70;99.90
66375;DHT22;53173;52.176;5.314;2023-03-08T21:48:21;2.60;99.90
66375;DHT22;53173;52.176;5.314;2023-03-08T21:50:49;2.70;99.90
66375;DHT22;53173;52.176;5.314;2023-03-08T21:53:16;2.70;99.90
66375;DHT22;53173;52.176;5.314;2023-03-08T21:56:09;2.60;99.90
66375;DHT22;53173;52.176;5.314;2023-03-08T21:58:44;2.60;99.90
66375;DHT22;53173;52.176;5.314;2023-03-08T22:01:26;2.60;99.90
66375;DHT22;53173;52.176;5.314;2023-03-08T22:03:55;2.70;99.90
66375;DHT22;53173;52.176;5.314;2023-03-08T22:06:42;2.60;99.90
66375;DHT22;53173;52.176;5.314;2023-03-08T22:09:09;2.60;99.90
66375;DHT22;53173;52.176;5.314;2023-03-08T22:11:37;2.60;99.90
66375;DHT22;53173;52.176;5.314;2023-03-08T22:14:05;2.70;99.90
66375;DHT22;53173;52.176;5.314;2023-03-08T22:16:32;2.60;99.90
66375;DHT22;53173;52.176;5.314;2023-03-08T22:19:16;2.60;99.90
66375;DHT22;53173;52.176;5.314;2023-03-08T22:21:51;2.60;99.90
66375;DHT22;53173;52.176;5.314;2023-03-08T22:24:19;2.60;99.90
66375;DHT22;53173;52.176;5.314;2023-03-08T22:26:51;2.60;99.90
66375;DHT22;53173;52.176;5.314;2023-03-08T22:29:18;2.50;99.90
66375;DHT22;53173;52.176;5.314;2023-03-08T22:31:45;2.50;99.90
66375;DHT22;53173;52.176;5.314;2023-03-08T22:34:12;2.50;99.90
66375;DHT22;53173;52.176;5.314;2023-03-08T22:36:45;2.50;99.90
66375;DHT22;53173;52.176;5.314;2023-03-08T22:39:12;2.70;99.90
66375;DHT22;53173;52.176;5.314;2023-03-08T22:41:39;2.50;99.90
66375;DHT22;53173;52.176;5.314;2023-03-08T22:44:12;2.50;99.90
66375;DHT22;53173;52.176;5.314;2023-03-08T22:46:44;2.50;99.90
66375;DHT22;53173;52.176;5.314;2023-03-08T22:49:11;2.50;99.90
66375;DHT22;53173;52.176;5.314;2023-03-08T22:51:40;2.50;99.90
66375;DHT22;53173;52.176;5.314;2023-03-08T22:54:16;2.50;99.90
66375;DHT22;53173;52.176;5.314;2023-03-08T22:56:48;2.50;99.90
66375;DHT22;53173;52.176;5.314;2023-03-08T22:59:16;2.60;99.90
66375;DHT22;53173;52.176;5.314;2023-03-08T23:01:43;2.50;99.90
66375;DHT22;53173;52.176;5.314;2023-03-08T23:04:11;2.40;99.90
66375;DHT22;53173;52.176;5.314;2023-03-08T23:06:40;2.40;99.90
66375;DHT22;53173;52.176;5.314;2023-03-08T23:09:08;2.40;99.90
66375;DHT22;53173;52.176;5.314;2023-03-08T23:11:36;2.40;99.90
66375;DHT22;53173;52.176;5.314;2023-03-08T23:14:04;2.40;99.90
66375;DHT22;53173;52.176;5.314;2023-03-08T23:16:32;2.40;99.90
66375;DHT22;53173;52.176;5.314;2023-03-08T23:18:59;2.40;99.90
66375;DHT22;53173;52.176;5.314;2023-03-08T23:21:29;2.30;99.90
66375;DHT22;53173;52.176;5.314;2023-03-08T23:23:57;2.50;99.90
66375;DHT22;53173;52.176;5.314;2023-03-08T23:26:25;2.30;99.90
66375;DHT22;53173;52.176;5.314;2023-03-08T23:28:55;2.30;99.90
66375;DHT22;53173;52.176;5.314;2023-03-08T23:31:24;2.30;99.90
66375;DHT22;53173;52.176;5.314;2023-03-08T23:33:52;2.30;99.90
66375;DHT22;53173;52.176;5.314;2023-03-08T23:36:39;2.20;99.90
66375;DHT22;53173;52.176;5.314;2023-03-08T23:39:06;2.20;99.90
66375;DHT22;53173;52.176;5.314;2023-03-08T23:41:35;2.20;99.90
66375;DHT22;53173;52.176;5.314;2023-03-08T23:44:02;2.20;99.90
66375;DHT22;53173;52.176;5.314;2023-03-08T23:46:30;2.20;99.90
66375;DHT22;53173;52.176;5.314;2023-03-08T23:48:59;2.30;99.90
66375;DHT22;53173;52.176;5.314;2023-03-08T23:51:30;2.10;99.90
66375;DHT22;53173;52.176;5.314;2023-03-08T23:53:58;2.20;99.90
66375;DHT22;53173;52.176;5.314;2023-03-08T23:56:34;2.20;99.90
66375;DHT22;53173;52.176;5.314;2023-03-08T23:59:11;2.20;99.90
